Time;durP1;ratioP1;P1;durP2;ratioP2;P2;SDS_P1;SDS_P2;PMS_P1;PMS_P2;Temp;Humidity;BMP_temperature;BMP_pressure;BME280_temperature;BME280_humidity;BME280_pressure;Samples;Min_cycle;Max_cycle;Signal;HPM_P1;HPM_P2
2021/12/10 00:00:49;;;;;;;5.35;3.00;;;2.10;99.90;;;;;;5069326;28;20221;-84
2021/12/10 00:03:20;;;;;;;6.35;2.15;;;2.10;99.90;;;;;;5060573;28;20213;-84
2021/12/10 00:05:51;;;;;;;2.95;2.70;;;2.00;99.90;;;;;;5060966;28;20654;-84
2021/12/10 00:08:18;;;;;;;2.95;2.03;;;2.10;99.90;;;;;;5061249;28;20248;-85
2021/12/10 00:10:49;;;;;;;4.28;2.92;;;2.10;99.90;;;;;;5059827;28;20226;-85
2021/12/10 00:13:19;;;;;;;4.80;2.78;;;2.00;99.90;;;;;;5060787;28;20289;-84
2021/12/10 00:15:47;;;;;;;6.90;2.38;;;2.00;99.90;;;;;;5060270;28;20205;-84
2021/12/10 00:18:18;;;;;;;2.72;2.53;;;1.90;99.90;;;;;;5059934;28;20292;-84
2021/12/10 00:20:48;;;;;;;5.07;2.50;;;1.90;99.90;;;;;;5060565;28;20644;-85
2021/12/10 00:23:20;;;;;;;4.93;3.08;;;2.00;99.90;;;;;;5059293;28;20732;-85
2021/12/10 00:25:53;;;;;;;8.63;2.67;;;1.90;99.90;;;;;;5059964;28;20210;-84
2021/12/10 00:28:29;;;;;;;3.92;3.17;;;1.90;99.90;;;;;;5060182;28;20218;-85
2021/12/10 00:31:03;;;;;;;3.78;2.63;;;2.00;99.90;;;;;;5059512;28;20679;-85
2021/12/10 00:33:40;;;;;;;3.10;2.50;;;1.90;99.90;;;;;;5059304;28;20205;-85
2021/12/10 00:36:12;;;;;;;2.15;1.60;;;1.90;99.90;;;;;;5059416;28;20648;-85
2021/12/10 00:38:46;;;;;;;3.15;2.40;;;1.80;99.90;;;;;;5058426;28;20214;-85
2021/12/10 00:41:17;;;;;;;5.22;2.22;;;1.80;99.90;;;;;;5059125;28;20726;-85
2021/12/10 00:43:46;;;;;;;4.90;2.55;;;1.80;99.90;;;;;;5058301;28;20205;-84
2021/12/10 00:46:13;;;;;;;3.05;2.78;;;1.80;99.90;;;;;;5058510;28;20203;-84
2021/12/10 00:48:40;;;;;;;3.28;2.05;;;1.80;99.90;;;;;;5059121;28;20624;-85
2021/12/10 00:51:18;;;;;;;4.03;2.35;;;1.70;99.90;;;;;;5058913;28;20624;-84
2021/12/10 00:53:49;;;;;;;1.90;1.80;;;1.70;99.90;;;;;;5059635;28;20235;-84
2021/12/10 00:56:18;;;;;;;5.20;2.83;;;1.70;99.90;;;;;;5059419;28;20222;-84
2021/12/10 00:58:47;;;;;;;2.97;1.90;;;1.60;99.90;;;;;;5058582;28;20234;-84
2021/12/10 01:01:16;;;;;;;5.00;3.60;;;1.60;99.90;;;;;;5058893;28;20211;-85
2021/12/10 01:03:46;;;;;;;7.30;2.83;;;1.70;99.90;;;;;;5058698;28;20211;-85
2021/12/10 01:06:16;;;;;;;3.45;2.08;;;1.70;99.90;;;;;;5058789;28;20578;-84
2021/12/10 01:08:47;;;;;;;2.53;1.60;;;1.70;99.90;;;;;;5058092;28;20542;-84
2021/12/10 01:11:20;;;;;;;3.03;2.28;;;1.80;99.90;;;;;;5057976;28;20217;-85
2021/12/10 01:13:56;;;;;;;4.47;4.28;;;1.70;99.90;;;;;;5057570;28;20252;-85
2021/12/10 01:25:04;;;;;;;3.15;1.90;;;1.70;99.90;;;;;;5058212;28;20202;-85
2021/12/10 01:27:35;;;;;;;3.00;1.80;;;1.60;99.90;;;;;;5058073;28;20196;-85
2021/12/10 01:30:13;;;;;;;6.65;3.28;;;1.60;99.90;;;;;;5060371;28;20233;-85
2021/12/10 01:32:44;;;;;;;3.80;2.78;;;1.60;99.90;;;;;;5063354;28;20692;-86
2021/12/10 01:35:14;;;;;;;4.03;3.72;;;1.60;99.90;;;;;;5064123;28;20212;-86
2021/12/10 01:40:26;;;;;;;2.40;2.20;;;1.50;99.90;;;;;;5063351;28;20214;-86
2021/12/10 01:43:01;;;;;;;3.90;3.03;;;1.40;99.90;;;;;;5063140;28;20269;-86
2021/12/10 01:45:32;;;;;;;3.83;2.08;;;1.50;99.90;;;;;;5063803;28;20213;-86
2021/12/10 01:48:08;;;;;;;5.03;2.45;;;1.40;99.90;;;;;;5064160;28;20197;-87
2021/12/10 01:50:36;;;;;;;1.92;1.42;;;1.50;99.90;;;;;;5063204;28;20232;-86
2021/12/10 01:53:07;;;;;;;3.28;2.20;;;1.40;99.90;;;;;;5064984;28;20206;-86
2021/12/10 01:55:37;;;;;;;3.92;2.00;;;1.40;99.90;;;;;;5062799;28;20221;-86
2021/12/10 02:01:01;;;;;;;2.42;1.88;;;1.40;99.90;;;;;;5062216;28;20230;-86
2021/12/10 02:03:30;;;;;;;4.65;2.20;;;1.40;99.90;;;;;;5063263;28;20265;-86
2021/12/10 02:05:58;;;;;;;3.38;2.25;;;1.30;99.90;;;;;;5062858;28;20210;-86
2021/12/10 02:08:25;;;;;;;3.35;1.75;;;1.30;99.90;;;;;;5062628;28;20259;-86
2021/12/10 02:10:52;;;;;;;1.75;1.30;;;1.30;99.90;;;;;;5062933;28;20237;-86
2021/12/10 02:13:21;;;;;;;1.83;1.73;;;1.20;99.90;;;;;;5061944;28;20217;-86
2021/12/10 02:15:50;;;;;;;4.32;1.92;;;1.20;99.90;;;;;;5062302;28;20202;-86
2021/12/10 02:18:17;;;;;;;2.35;2.13;;;1.10;99.90;;;;;;5062337;28;20616;-86
2021/12/10 02:20:59;;;;;;;2.20;1.98;;;1.20;99.90;;;;;;5062242;28;20228;-86
2021/12/10 02:23:25;;;;;;;1.77;1.67;;;1.10;99.90;;;;;;5063290;28;20659;-86
2021/12/10 02:25:53;;;;;;;3.60;1.90;;;1.10;99.90;;;;;;5061907;28;20636;-86
2021/12/10 02:28:21;;;;;;;2.20;2.08;;;1.10;99.90;;;;;;5062082;28;20210;-86
2021/12/10 02:30:48;;;;;;;3.58;3.38;;;1.10;99.90;;;;;;5062072;28;20225;-86
2021/12/10 02:33:16;;;;;;;2.15;1.52;;;1.00;99.90;;;;;;5062296;28;20645;-87
2021/12/10 02:35:44;;;;;;;6.93;2.80;;;1.00;99.90;;;;;;5061854;28;20237;-87
2021/12/10 02:38:15;;;;;;;8.10;2.25;;;1.00;99.90;;;;;;5061961;28;20265;-85
2021/12/10 02:40:42;;;;;;;1.80;1.35;;;1.00;99.90;;;;;;5061303;28;20217;-86
2021/12/10 02:43:11;;;;;;;7.53;2.42;;;1.00;99.90;;;;;;5062081;28;20206;-86
2021/12/10 02:45:39;;;;;;;7.10;2.80;;;1.00;99.90;;;;;;5062036;28;20212;-85
2021/12/10 02:48:07;;;;;;;2.15;1.90;;;1.00;99.90;;;;;;5061959;28;20208;-85
2021/12/10 02:50:35;;;;;;;4.72;2.58;;;0.90;99.90;;;;;;5061143;28;20755;-87
2021/12/10 02:53:09;;;;;;;2.70;2.53;;;0.90;99.90;;;;;;5061617;28;20199;-87
2021/12/10 02:55:38;;;;;;;3.60;2.03;;;0.80;99.90;;;;;;5061808;28;20682;-86
2021/12/10 02:58:09;;;;;;;3.50;2.00;;;0.80;99.90;;;;;;5061491;28;20198;-86
2021/12/10 03:00:39;;;;;;;2.30;2.10;;;0.80;99.90;;;;;;5062265;28;20261;-86
2021/12/10 03:03:08;;;;;;;2.00;1.80;;;0.80;99.90;;;;;;5062024;28;20196;-85
2021/12/10 03:05:36;;;;;;;1.98;1.88;;;0.80;99.90;;;;;;5061872;28;20269;-86
2021/12/10 03:08:04;;;;;;;2.28;2.03;;;0.80;99.90;;;;;;5061309;28;20232;-86
2021/12/10 03:10:32;;;;;;;4.57;2.05;;;0.90;99.90;;;;;;5062152;28;20252;-86
2021/12/10 03:13:02;;;;;;;2.50;2.30;;;0.90;99.90;;;;;;5062038;28;20216;-86
2021/12/10 03:15:30;;;;;;;2.97;2.70;;;0.90;99.90;;;;;;5061895;28;20213;-86
2021/12/10 03:18:00;;;;;;;3.60;2.35;;;0.90;99.90;;;;;;5061404;28;20198;-86
2021/12/10 03:20:30;;;;;;;15.13;3.97;;;0.90;99.90;;;;;;5061543;28;20279;-86
2021/12/10 03:22:57;;;;;;;6.45;3.20;;;0.90;99.90;;;;;;5062609;28;20205;-86
2021/12/10 03:25:24;;;;;;;2.65;2.45;;;0.90;99.90;;;;;;5063374;28;20257;-86
2021/12/10 03:27:52;;;;;;;3.17;2.55;;;0.90;99.90;;;;;;5072899;28;20269;-86
2021/12/10 03:30:23;;;;;;;3.55;2.60;;;0.90;99.90;;;;;;5073273;28;20226;-85
2021/12/10 03:32:50;;;;;;;2.42;2.22;;;0.80;99.90;;;;;;5073293;28;20234;-85
2021/12/10 03:35:22;;;;;;;3.08;2.60;;;0.80;99.90;;;;;;5073880;28;20274;-87
2021/12/10 03:37:49;;;;;;;3.97;3.40;;;0.80;99.90;;;;;;5075810;28;20200;-86
2021/12/10 03:40:18;;;;;;;4.68;2.60;;;0.90;99.90;;;;;;5077321;28;20228;-87
2021/12/10 03:42:47;;;;;;;2.72;2.50;;;0.80;99.90;;;;;;5077599;28;20202;-86
2021/12/10 03:45:16;;;;;;;3.65;2.38;;;0.80;99.90;;;;;;5078074;28;20212;-87
2021/12/10 03:47:45;;;;;;;3.15;2.60;;;0.80;99.90;;;;;;5077871;28;20189;-85
2021/12/10 03:50:20;;;;;;;4.03;3.00;;;0.90;99.90;;;;;;5078463;28;20232;-86
2021/12/10 03:52:55;;;;;;;4.40;2.35;;;0.80;99.90;;;;;;5078540;28;20201;-86
2021/12/10 03:55:28;;;;;;;4.00;2.80;;;0.80;99.90;;;;;;5078524;28;20205;-86
2021/12/10 03:57:57;;;;;;;6.53;2.50;;;0.70;99.90;;;;;;5078673;28;20190;-88
2021/12/10 04:00:32;;;;;;;3.08;2.72;;;0.70;99.90;;;;;;5078344;28;20225;-87
2021/12/10 04:03:02;;;;;;;9.48;3.30;;;0.70;99.90;;;;;;5079100;28;20208;-85
2021/12/10 04:05:30;;;;;;;4.20;2.90;;;0.60;99.90;;;;;;5079358;28;20206;-88
2021/12/10 04:07:57;;;;;;;7.85;2.60;;;0.60;99.90;;;;;;5079495;28;20189;-87
2021/12/10 04:10:25;;;;;;;3.22;3.03;;;0.50;99.90;;;;;;5079021;28;20230;-86
2021/12/10 04:12:52;;;;;;;7.25;2.47;;;0.40;99.90;;;;;;5079146;28;20234;-87
2021/12/10 04:15:22;;;;;;;11.88;2.95;;;0.30;99.90;;;;;;5079563;28;20225;-86
2021/12/10 04:17:53;;;;;;;3.03;2.72;;;0.30;99.90;;;;;;5078769;28;20209;-87
2021/12/10 04:20:23;;;;;;;2.72;2.53;;;0.30;99.90;;;;;;5078828;28;20218;-85
2021/12/10 04:22:54;;;;;;;3.75;3.55;;;0.30;99.90;;;;;;5078425;28;20201;-85
2021/12/10 04:25:25;;;;;;;4.18;3.78;;;0.30;99.90;;;;;;5075139;28;20202;-86
2021/12/10 04:27:54;;;;;;;3.35;3.05;;;0.20;99.90;;;;;;5064765;28;20210;-85
2021/12/10 04:30:22;;;;;;;3.78;2.30;;;0.20;99.90;;;;;;5064668;28;20242;-86
2021/12/10 04:32:49;;;;;;;3.80;3.35;;;0.20;99.90;;;;;;5064951;28;20253;-86
2021/12/10 04:35:18;;;;;;;2.72;2.50;;;0.20;99.90;;;;;;5065322;28;20194;-86
2021/12/10 04:37:49;;;;;;;4.90;3.60;;;0.20;99.90;;;;;;5064954;28;20244;-86
2021/12/10 04:40:21;;;;;;;3.33;2.92;;;0.20;99.90;;;;;;5063489;28;20252;-86
2021/12/10 04:42:49;;;;;;;4.25;3.20;;;0.20;99.90;;;;;;5065696;28;20209;-85
2021/12/10 04:45:18;;;;;;;6.20;3.42;;;0.20;99.90;;;;;;5066089;28;20296;-86
2021/12/10 04:47:46;;;;;;;4.38;3.60;;;0.20;99.90;;;;;;5075867;28;20201;-86
2021/12/10 04:50:15;;;;;;;7.03;4.25;;;0.20;99.90;;;;;;5076203;28;20222;-88
2021/12/10 04:52:42;;;;;;;3.33;3.13;;;0.20;99.90;;;;;;5076885;28;20285;-87
2021/12/10 04:55:12;;;;;;;3.63;3.42;;;0.20;99.90;;;;;;5077591;28;20210;-86
2021/12/10 04:57:40;;;;;;;6.50;3.92;;;0.20;99.90;;;;;;5077909;28;20328;-87
2021/12/10 05:00:10;;;;;;;10.13;4.15;;;0.20;99.90;;;;;;5077131;28;20216;-89
2021/12/10 05:02:39;;;;;;;5.00;4.03;;;0.10;99.90;;;;;;5078194;28;20192;-88
2021/12/10 05:05:08;;;;;;;5.82;3.53;;;0.10;99.90;;;;;;5077983;28;20198;-87
2021/12/10 05:07:37;;;;;;;5.00;3.63;;;0.10;99.90;;;;;;5077564;28;20216;-87
2021/12/10 05:10:07;;;;;;;7.97;4.38;;;0.10;99.90;;;;;;5076805;28;20224;-90
2021/12/10 05:12:41;;;;;;;4.50;4.10;;;0.00;99.90;;;;;;5077442;28;20194;-85
2021/12/10 05:15:12;;;;;;;7.10;3.97;;;-0.10;99.90;;;;;;5077580;28;20221;-85
2021/12/10 05:17:40;;;;;;;4.15;3.83;;;0.00;99.90;;;;;;5077106;28;20206;-89
2021/12/10 05:20:12;;;;;;;7.40;4.38;;;0.00;99.90;;;;;;5076722;28;20217;-87
2021/12/10 05:22:39;;;;;;;4.20;3.72;;;-0.10;99.90;;;;;;5072872;28;20210;-85
2021/12/10 05:25:08;;;;;;;4.43;4.00;;;-0.10;99.90;;;;;;5065231;28;20224;-87
2021/12/10 05:27:35;;;;;;;9.25;6.03;;;-0.20;99.90;;;;;;5064699;28;20628;-86
2021/12/10 05:30:05;;;;;;;7.13;5.10;;;-0.20;99.90;;;;;;5064164;28;20249;-87
2021/12/10 05:32:32;;;;;;;6.57;5.47;;;-0.20;99.90;;;;;;5064120;28;20225;-86
2021/12/10 05:35:00;;;;;;;5.57;4.90;;;-0.20;99.90;;;;;;5064033;28;20265;-86
2021/12/10 05:37:31;;;;;;;13.75;4.72;;;-0.30;99.90;;;;;;5063819;28;20296;-86
2021/12/10 05:39:58;;;;;;;12.57;5.05;;;-0.20;99.90;;;;;;5064029;28;20226;-86
2021/12/10 05:42:32;;;;;;;6.53;5.82;;;-0.20;99.90;;;;;;5064530;28;20197;-85
2021/12/10 05:45:02;;;;;;;6.45;5.40;;;-0.20;99.90;;;;;;5063072;28;20213;-86
2021/12/10 05:47:31;;;;;;;7.65;5.82;;;-0.20;99.90;;;;;;5064135;28;20618;-86
2021/12/10 05:50:00;;;;;;;7.70;5.05;;;-0.10;99.90;;;;;;5063461;28;20777;-86
2021/12/10 05:52:27;;;;;;;10.48;6.20;;;-0.10;99.90;;;;;;5062971;28;20218;-86
2021/12/10 05:55:04;;;;;;;9.88;5.95;;;-0.10;99.90;;;;;;5063166;28;20210;-86
2021/12/10 05:57:32;;;;;;;6.30;5.40;;;-0.10;99.90;;;;;;5063049;28;20204;-86
2021/12/10 06:00:06;;;;;;;6.60;6.00;;;-0.10;99.90;;;;;;5063056;28;20232;-86
2021/12/10 06:02:34;;;;;;;11.95;7.07;;;0.00;99.90;;;;;;5062990;28;20280;-86
2021/12/10 06:05:03;;;;;;;8.40;6.55;;;0.00;99.90;;;;;;5063390;28;20212;-86
2021/12/10 06:07:34;;;;;;;13.43;6.75;;;0.00;99.90;;;;;;5062509;28;20205;-86
2021/12/10 06:10:08;;;;;;;8.63;6.32;;;0.00;99.90;;;;;;5063053;28;20229;-85
2021/12/10 06:12:36;;;;;;;10.35;7.18;;;0.00;99.90;;;;;;5063024;28;20681;-86
2021/12/10 06:15:04;;;;;;;10.68;6.70;;;0.00;99.90;;;;;;5062584;28;20217;-86
2021/12/10 06:17:31;;;;;;;6.90;6.22;;;0.00;99.90;;;;;;5063528;28;20202;-87
2021/12/10 06:19:59;;;;;;;12.60;7.38;;;0.10;99.90;;;;;;5062502;28;20249;-86
2021/12/10 06:22:29;;;;;;;10.95;6.95;;;0.00;99.90;;;;;;5062370;28;20194;-86
2021/12/10 06:24:59;;;;;;;12.15;6.72;;;0.10;99.90;;;;;;5062066;28;20260;-86
2021/12/10 06:27:28;;;;;;;9.98;5.60;;;0.10;99.90;;;;;;5062816;28;20198;-86
2021/12/10 06:29:55;;;;;;;14.45;7.05;;;0.10;99.90;;;;;;5062653;28;20233;-86
2021/12/10 06:32:26;;;;;;;10.95;6.43;;;0.10;99.90;;;;;;5062508;28;20304;-85
2021/12/10 06:34:59;;;;;;;8.60;7.13;;;0.10;99.90;;;;;;5062211;28;20633;-85
2021/12/10 06:37:41;;;;;;;9.30;6.72;;;0.10;99.90;;;;;;5061936;28;20198;-86
2021/12/10 06:40:12;;;;;;;10.40;7.60;;;0.10;99.90;;;;;;5061391;28;20234;-86
2021/12/10 06:42:43;;;;;;;13.23;7.55;;;0.10;99.90;;;;;;5062302;28;20727;-86
2021/12/10 06:45:12;;;;;;;8.13;6.60;;;0.20;99.90;;;;;;5062398;28;20271;-86
2021/12/10 06:47:44;;;;;;;6.80;6.18;;;0.20;99.90;;;;;;5062600;28;20451;-84
2021/12/10 06:50:12;;;;;;;9.85;6.97;;;0.20;99.90;;;;;;5062143;28;20221;-88
2021/12/10 06:52:39;;;;;;;12.02;5.72;;;0.10;99.90;;;;;;5062216;28;20351;-87
2021/12/10 06:55:07;;;;;;;6.63;5.80;;;0.10;99.90;;;;;;5059069;28;20292;-86
2021/12/10 06:57:35;;;;;;;10.60;6.95;;;0.10;99.90;;;;;;5058010;28;20201;-85
2021/12/10 07:00:01;;;;;;;8.27;6.28;;;0.00;99.90;;;;;;5057030;28;20237;-84
2021/12/10 07:02:29;;;;;;;11.60;6.25;;;0.10;99.90;;;;;;5061788;28;20205;-84
2021/12/10 07:04:55;;;;;;;10.98;7.13;;;0.20;99.90;;;;;;5059649;28;20208;-83
2021/12/10 07:07:23;;;;;;;14.65;7.70;;;0.20;99.90;;;;;;5060623;28;20518;-83
2021/12/10 07:09:50;;;;;;;9.32;6.63;;;0.20;99.90;;;;;;5060323;28;20229;-83
2021/12/10 07:12:18;;;;;;;13.82;7.50;;;0.20;99.90;;;;;;5062945;28;20221;-83
2021/12/10 07:14:45;;;;;;;8.45;7.22;;;0.30;99.90;;;;;;5048657;28;20230;-84
2021/12/10 07:17:12;;;;;;;8.80;7.57;;;0.40;99.90;;;;;;5049360;28;20205;-83
2021/12/10 07:19:40;;;;;;;11.48;6.60;;;0.50;99.90;;;;;;5063234;28;20225;-81
2021/12/10 07:22:07;;;;;;;11.73;7.85;;;0.50;99.90;;;;;;5060788;28;20209;-81
2021/12/10 07:24:35;;;;;;;8.13;6.60;;;0.50;99.90;;;;;;5062187;28;20216;-82
2021/12/10 07:27:02;;;;;;;14.98;8.55;;;0.50;99.90;;;;;;5064283;28;20216;-82
2021/12/10 07:29:29;;;;;;;7.05;6.30;;;0.50;99.90;;;;;;5071011;28;20240;-82
2021/12/10 07:31:55;;;;;;;10.50;7.32;;;0.50;99.90;;;;;;5068565;28;20221;-82
2021/12/10 07:34:22;;;;;;;13.88;6.60;;;0.50;99.90;;;;;;5072363;28;20197;-82
2021/12/10 07:36:49;;;;;;;10.77;7.97;;;0.50;99.90;;;;;;5070846;28;20219;-82
2021/12/10 07:39:16;;;;;;;11.68;6.28;;;0.50;99.90;;;;;;5071132;28;20244;-82
2021/12/10 07:41:44;;;;;;;7.00;6.40;;;0.50;99.90;;;;;;5067005;28;20202;-82
2021/12/10 07:44:12;;;;;;;11.10;6.15;;;0.60;99.90;;;;;;5075808;28;20193;-81
2021/12/10 07:46:40;;;;;;;7.22;6.45;;;0.60;99.90;;;;;;5072747;28;20209;-79
2021/12/10 07:49:13;;;;;;;10.00;7.70;;;0.70;99.90;;;;;;5060712;28;20264;-81
2021/12/10 07:51:40;;;;;;;8.43;7.13;;;0.70;99.90;;;;;;5061931;28;20259;-81
2021/12/10 07:54:07;;;;;;;8.85;7.55;;;0.70;99.90;;;;;;5061057;28;20831;-82
2021/12/10 07:56:34;;;;;;;10.50;6.68;;;0.70;99.90;;;;;;5061467;28;20550;-83
2021/12/10 07:59:03;;;;;;;19.98;7.43;;;0.80;99.90;;;;;;5061320;28;20635;-82
2021/12/10 08:01:31;;;;;;;18.35;9.65;;;0.80;99.90;;;;;;5061279;28;20222;-82
2021/12/10 08:04:01;;;;;;;6.82;5.72;;;0.80;99.90;;;;;;5061261;28;20269;-82
2021/12/10 08:06:31;;;;;;;7.90;7.15;;;0.90;99.90;;;;;;5060978;28;20596;-81
2021/12/10 08:08:58;;;;;;;10.52;7.20;;;1.00;99.90;;;;;;5060945;28;20213;-82
2021/12/10 08:11:25;;;;;;;8.48;6.65;;;1.00;99.90;;;;;;5061261;28;20588;-83
2021/12/10 08:13:52;;;;;;;7.13;5.85;;;1.10;99.90;;;;;;5060581;28;20235;-82
2021/12/10 08:16:23;;;;;;;9.70;6.55;;;1.10;99.90;;;;;;5059211;28;20417;-82
2021/12/10 08:18:51;;;;;;;8.18;6.63;;;1.20;99.90;;;;;;5067209;28;20276;-82
2021/12/10 08:21:18;;;;;;;7.63;6.05;;;1.30;99.90;;;;;;5067915;28;20199;-82
2021/12/10 08:23:45;;;;;;;9.45;5.90;;;1.40;99.90;;;;;;5057272;28;20226;-83
2021/12/10 08:26:12;;;;;;;9.20;8.27;;;1.40;99.90;;;;;;5061827;28;20212;-83
2021/12/10 08:28:39;;;;;;;7.72;6.03;;;1.50;99.90;;;;;;5062358;28;20217;-83
2021/12/10 08:31:07;;;;;;;12.65;7.72;;;1.60;99.90;;;;;;5062156;28;20210;-83
2021/12/10 08:33:35;;;;;;;8.80;6.45;;;1.70;99.90;;;;;;5061546;28;20226;-83
2021/12/10 08:36:07;;;;;;;7.40;6.80;;;1.80;99.90;;;;;;5061566;28;20205;-83
2021/12/10 08:38:34;;;;;;;7.90;7.07;;;1.70;99.90;;;;;;5061567;28;20232;-84
2021/12/10 08:41:04;;;;;;;8.70;7.80;;;1.80;99.90;;;;;;5061267;28;20225;-83
2021/12/10 08:43:32;;;;;;;6.90;6.25;;;1.80;99.90;;;;;;5062025;28;20206;-83
2021/12/10 08:46:00;;;;;;;8.93;8.02;;;1.90;99.90;;;;;;5061960;28;20202;-83
2021/12/10 08:48:29;;;;;;;7.85;6.47;;;2.00;99.90;;;;;;5062206;28;20206;-83
2021/12/10 08:51:00;;;;;;;6.28;5.10;;;2.10;99.90;;;;;;5061545;28;20234;-83
2021/12/10 08:53:27;;;;;;;12.18;6.43;;;2.10;99.90;;;;;;5061993;28;20223;-83
2021/12/10 08:55:57;;;;;;;8.68;6.47;;;2.20;99.90;;;;;;5061470;28;20565;-83
2021/12/10 08:58:25;;;;;;;6.32;5.60;;;2.40;99.90;;;;;;5061366;28;20214;-83
2021/12/10 09:00:57;;;;;;;4.50;4.07;;;2.40;99.90;;;;;;5060413;28;20253;-84
2021/12/10 09:03:24;;;;;;;6.55;4.63;;;2.40;99.90;;;;;;5060405;28;20206;-83
2021/12/10 09:05:51;;;;;;;5.65;4.63;;;2.30;99.90;;;;;;5060611;28;20207;-84
2021/12/10 09:08:19;;;;;;;4.07;3.72;;;2.30;99.90;;;;;;5061197;28;20210;-84
2021/12/10 09:10:48;;;;;;;4.80;4.22;;;2.10;99.90;;;;;;5061273;28;20234;-84
2021/12/10 09:13:17;;;;;;;4.10;3.30;;;2.20;99.90;;;;;;5061983;28;20236;-83
2021/12/10 09:15:46;;;;;;;4.55;4.15;;;2.10;99.90;;;;;;5061939;28;20206;-84
2021/12/10 09:18:14;;;;;;;4.63;3.53;;;2.10;99.90;;;;;;5061719;28;20598;-83
2021/12/10 09:20:44;;;;;;;6.63;4.10;;;2.10;99.90;;;;;;5061063;28;20226;-84
2021/12/10 09:23:14;;;;;;;4.25;3.85;;;2.20;99.90;;;;;;5060349;28;20198;-83
2021/12/10 09:25:42;;;;;;;8.77;3.63;;;2.20;99.90;;;;;;5061090;28;20207;-84
2021/12/10 09:28:10;;;;;;;6.13;3.65;;;2.20;99.90;;;;;;5061608;28;20616;-84
2021/12/10 09:30:44;;;;;;;2.55;2.35;;;2.30;99.90;;;;;;5061966;28;20230;-84
2021/12/10 09:33:10;;;;;;;7.80;3.10;;;2.30;99.90;;;;;;5061485;28;20219;-84
2021/12/10 09:35:38;;;;;;;3.17;2.90;;;2.40;99.90;;;;;;5061191;28;20201;-83
2021/12/10 09:38:07;;;;;;;3.65;3.35;;;2.40;99.90;;;;;;5062759;28;20213;-84
2021/12/10 09:40:36;;;;;;;2.58;2.38;;;2.50;99.90;;;;;;5063049;28;20226;-83
2021/12/10 09:43:07;;;;;;;2.92;2.63;;;2.60;99.90;;;;;;5063778;28;20202;-84
2021/12/10 09:45:42;;;;;;;4.63;2.83;;;2.70;99.90;;;;;;5063822;28;20206;-85
2021/12/10 09:48:13;;;;;;;4.00;1.85;;;2.80;99.90;;;;;;5065309;28;20812;-83
2021/12/10 09:50:47;;;;;;;2.75;2.53;;;2.80;99.90;;;;;;5071455;28;20310;-83
2021/12/10 09:53:14;;;;;;;2.10;1.95;;;2.80;99.90;;;;;;5039156;28;20223;-83
2021/12/10 09:59:18;;;;;;;2.50;2.33;;;2.80;99.90;;;;;;5014815;28;20219;-85
2021/12/10 10:01:52;;;;;;;1.63;1.52;;;2.80;99.90;;;;;;5013431;28;20224;-84
2021/12/10 10:10:39;;;;;;;3.15;2.15;;;2.80;99.90;;;;;;4969417;28;20234;-88
2021/12/10 10:13:08;;;;;;;1.50;1.20;;;2.90;99.90;;;;;;5027638;28;20228;-83
2021/12/10 10:15:40;;;;;;;3.20;2.10;;;3.10;99.90;;;;;;5050899;28;20203;-82
2021/12/10 10:18:10;;;;;;;1.80;1.70;;;3.30;99.90;;;;;;5052935;28;20208;-80
2021/12/10 10:20:41;;;;;;;2.35;2.20;;;3.40;99.90;;;;;;5052987;28;20745;-81
2021/12/10 10:23:10;;;;;;;3.63;1.58;;;3.50;99.90;;;;;;5039218;28;20222;-81
2021/12/10 10:25:40;;;;;;;2.85;2.15;;;3.60;99.90;;;;;;5054457;28;20266;-80
2021/12/10 10:28:10;;;;;;;9.27;2.55;;;3.70;99.90;;;;;;5054138;28;20202;-80
2021/12/10 10:30:42;;;;;;;4.90;2.85;;;3.70;99.70;;;;;;5052567;28;20216;-81
2021/12/10 10:33:11;;;;;;;2.25;2.05;;;3.80;99.90;;;;;;5060001;28;20222;-83
2021/12/10 10:35:42;;;;;;;5.00;2.80;;;3.90;99.80;;;;;;5060626;28;20609;-81
2021/12/10 10:38:11;;;;;;;2.40;2.17;;;3.90;99.10;;;;;;5060091;28;20202;-81
2021/12/10 10:40:41;;;;;;;6.43;2.25;;;3.90;99.20;;;;;;5058760;28;20230;-82
2021/12/10 10:43:09;;;;;;;4.85;2.50;;;3.90;98.90;;;;;;5057839;28;20199;-83
2021/12/10 10:45:42;;;;;;;3.10;2.22;;;3.90;98.80;;;;;;5058543;28;20295;-81
2021/12/10 10:48:11;;;;;;;4.07;2.15;;;3.90;98.40;;;;;;5059918;28;20768;-81
2021/12/10 10:50:46;;;;;;;4.82;2.22;;;3.90;98.90;;;;;;5058392;28;20233;-82
2021/12/10 10:53:15;;;;;;;5.97;3.17;;;3.90;99.00;;;;;;5049808;28;20227;-80
2021/12/10 10:55:52;;;;;;;3.72;1.95;;;3.90;98.30;;;;;;5059501;28;20228;-81
2021/12/10 10:58:22;;;;;;;8.63;3.25;;;4.00;98.60;;;;;;5041472;28;20209;-79
2021/12/10 11:00:59;;;;;;;2.35;1.60;;;4.00;98.00;;;;;;5036135;28;20229;-79
2021/12/10 11:03:36;;;;;;;1.88;1.67;;;3.90;97.60;;;;;;5037133;28;20211;-79
2021/12/10 11:06:06;;;;;;;2.15;1.92;;;3.90;97.30;;;;;;5050738;28;20318;-80
2021/12/10 11:08:35;;;;;;;6.22;2.20;;;4.00;97.20;;;;;;5057662;28;20592;-80
2021/12/10 11:11:14;;;;;;;8.98;2.30;;;4.20;97.50;;;;;;5056206;28;20213;-80
2021/12/10 11:13:41;;;;;;;4.22;1.63;;;4.10;96.50;;;;;;5054956;28;20236;-80
2021/12/10 11:16:12;;;;;;;4.85;1.60;;;4.00;95.80;;;;;;5055432;28;20205;-82
2021/12/10 11:18:46;;;;;;;3.13;2.92;;;4.00;95.30;;;;;;5057382;28;20206;-82
2021/12/10 11:21:13;;;;;;;2.55;1.50;;;3.90;95.50;;;;;;5057794;28;20233;-83
2021/12/10 11:23:42;;;;;;;3.75;3.30;;;3.80;96.20;;;;;;5056927;28;20205;-81
2021/12/10 11:26:10;;;;;;;1.60;1.50;;;3.90;96.60;;;;;;5057375;28;20206;-85
2021/12/10 11:28:41;;;;;;;1.58;1.48;;;3.80;97.20;;;;;;5057663;28;20210;-83
2021/12/10 11:31:15;;;;;;;1.33;1.25;;;3.80;96.90;;;;;;5062770;28;20201;-83
2021/12/10 11:33:49;;;;;;;3.97;2.10;;;3.70;97.30;;;;;;5077650;28;20228;-81
2021/12/10 11:36:18;;;;;;;2.50;1.13;;;3.70;97.80;;;;;;5059342;28;20704;-84
2021/12/10 11:38:46;;;;;;;1.30;1.20;;;3.60;98.40;;;;;;5056951;28;20210;-83
2021/12/10 11:41:15;;;;;;;0.98;0.93;;;3.40;99.00;;;;;;5055908;28;20203;-80
2021/12/10 11:43:56;;;;;;;0.77;0.77;;;3.20;99.50;;;;;;5070053;28;20207;-81
2021/12/10 11:49:24;;;;;;;1.05;1.05;;;3.00;99.90;;;;;;5053103;28;20245;-82
2021/12/10 11:51:56;;;;;;;1.92;0.75;;;2.80;99.90;;;;;;5046297;28;20218;-83
2021/12/10 11:54:30;;;;;;;0.77;0.70;;;2.60;99.90;;;;;;5056058;28;20213;-83
2021/12/10 11:57:01;;;;;;;0.93;0.80;;;2.50;99.90;;;;;;5055717;28;20206;-81
2021/12/10 11:59:31;;;;;;;1.00;1.00;;;2.30;99.90;;;;;;5072340;28;20600;-82
2021/12/10 12:02:02;;;;;;;2.03;1.08;;;2.20;99.90;;;;;;5060559;28;20198;-81
2021/12/10 12:04:34;;;;;;;4.03;1.30;;;2.10;99.90;;;;;;5060547;28;20221;-82
2021/12/10 12:07:24;;;;;;;1.60;1.50;;;2.00;99.90;;;;;;5060427;28;20239;-84
2021/12/10 12:09:55;;;;;;;2.75;1.80;;;2.00;99.90;;;;;;5060575;28;20261;-87
2021/12/10 12:12:24;;;;;;;2.05;1.65;;;2.00;99.90;;;;;;5060947;28;20216;-83
2021/12/10 12:15:04;;;;;;;11.65;1.55;;;2.00;99.90;;;;;;5060817;28;20218;-85
2021/12/10 12:17:36;;;;;;;1.33;1.23;;;2.00;99.90;;;;;;5051921;28;20292;-82
2021/12/10 12:20:10;;;;;;;1.42;1.33;;;1.90;99.90;;;;;;5060213;28;20304;-83
2021/12/10 12:25:28;;;;;;;1.80;1.70;;;2.10;99.90;;;;;;5060167;28;20209;-80
2021/12/10 12:28:02;;;;;;;3.60;2.25;;;2.10;99.90;;;;;;5059417;28;20206;-81
2021/12/10 12:30:29;;;;;;;1.83;1.73;;;2.20;99.90;;;;;;5063127;28;20233;-84
2021/12/10 12:32:59;;;;;;;2.50;1.85;;;2.20;99.90;;;;;;5059614;28;20691;-81
2021/12/10 12:35:30;;;;;;;4.03;2.47;;;2.30;99.90;;;;;;5059251;28;20288;-82
2021/12/10 12:38:15;;;;;;;2.25;2.05;;;2.40;99.90;;;;;;5058769;28;20207;-82
2021/12/10 12:40:45;;;;;;;2.75;1.70;;;2.50;99.90;;;;;;5058210;28;20254;-83
2021/12/10 12:43:12;;;;;;;1.63;1.50;;;2.50;99.90;;;;;;5058407;28;20214;-82
2021/12/10 12:45:41;;;;;;;4.40;2.80;;;2.60;99.90;;;;;;5059674;28;20202;-82
2021/12/10 12:48:14;;;;;;;7.05;2.45;;;2.70;99.90;;;;;;5058930;28;20208;-82
2021/12/10 12:50:43;;;;;;;2.95;2.67;;;2.70;99.90;;;;;;5058158;28;20237;-82
2021/12/10 12:53:13;;;;;;;4.40;2.70;;;2.80;99.90;;;;;;5060326;28;20204;-84
2021/12/10 12:55:51;;;;;;;4.60;2.75;;;2.70;99.90;;;;;;5058862;28;20267;-85
2021/12/10 12:58:24;;;;;;;11.70;2.75;;;2.60;99.90;;;;;;5059639;28;20193;-82
2021/12/10 13:01:01;;;;;;;5.75;2.45;;;2.70;99.90;;;;;;5057866;28;20260;-82
2021/12/10 13:03:35;;;;;;;3.67;2.28;;;2.70;99.90;;;;;;5057529;28;20220;-82
2021/12/10 13:06:12;;;;;;;3.20;2.60;;;2.80;99.90;;;;;;5074833;28;20234;-84
2021/12/10 13:11:34;;;;;;;5.82;2.40;;;2.90;99.90;;;;;;5069778;28;20192;-84
2021/12/10 13:14:13;;;;;;;8.40;3.50;;;2.90;99.90;;;;;;5065265;28;20240;-84
2021/12/10 13:16:45;;;;;;;3.78;3.10;;;3.00;99.90;;;;;;5067910;28;20218;-84
2021/12/10 13:19:17;;;;;;;3.03;2.83;;;2.90;99.90;;;;;;5061200;28;20234;-85
2021/12/10 13:21:46;;;;;;;2.83;2.20;;;2.90;99.90;;;;;;5062186;28;20202;-86
2021/12/10 13:24:14;;;;;;;3.13;2.53;;;2.90;99.90;;;;;;5059730;28;20285;-83
2021/12/10 13:26:41;;;;;;;3.65;3.25;;;2.90;99.90;;;;;;5061165;28;20204;-84
2021/12/10 13:29:09;;;;;;;2.40;2.20;;;2.90;99.90;;;;;;5063034;28;20229;-83
2021/12/10 13:31:36;;;;;;;3.25;2.95;;;2.90;99.90;;;;;;5059498;28;20674;-83
2021/12/10 13:34:04;;;;;;;3.00;2.70;;;2.90;99.90;;;;;;5059125;28;20229;-83
2021/12/10 13:36:32;;;;;;;3.42;2.40;;;3.00;99.90;;;;;;5058701;28;20209;-83
2021/12/10 13:39:00;;;;;;;3.28;2.97;;;3.00;99.90;;;;;;5059321;28;20573;-83
2021/12/10 13:41:31;;;;;;;4.05;3.00;;;3.00;99.90;;;;;;5058701;28;20284;-83